sensor_id;sensor_type;location;lat;lon;timestamp;P1;durP1;ratioP1;P2;durP2;ratioP2
79346;SDS011;68815;48.810;44.482;2023-04-19T00:01:00;8.5;;;2.6;;
79346;SDS011;68815;48.810;44.482;2023-04-19T00:04:01;8.7;;;2.2;;
79346;SDS011;68815;48.810;44.482;2023-04-19T00:07:03;6.6;;;2.2;;
79346;SDS011;68815;48.810;44.482;2023-04-19T00:10:05;6.3;;;2.6;;
79346;SDS011;68815;48.810;44.482;2023-04-19T00:13:07;8;;;2.5;;
79346;SDS011;68815;48.810;44.482;2023-04-19T00:16:09;10.7;;;2.6;;
79346;SDS011;68815;48.810;44.482;2023-04-19T00:19:10;10.4;;;2.9;;
79346;SDS011;68815;48.810;44.482;2023-04-19T00:22:12;9.8;;;3;;
79346;SDS011;68815;48.810;44.482;2023-04-19T00:25:13;8.4;;;2.5;;
79346;SDS011;68815;48.810;44.482;2023-04-19T00:28:15;10.8;;;2.7;;
79346;SDS011;68815;48.810;44.482;2023-04-19T00:31:16;10.4;;;2.9;;
79346;SDS011;68815;48.810;44.482;2023-04-19T00:34:18;8.1;;;2.7;;
79346;SDS011;68815;48.810;44.482;2023-04-19T00:37:19;7.8;;;2.5;;
79346;SDS011;68815;48.810;44.482;2023-04-19T00:40:21;7.2;;;2.4;;
79346;SDS011;68815;48.810;44.482;2023-04-19T00:43:22;11.8;;;2.4;;
79346;SDS011;68815;48.810;44.482;2023-04-19T00:46:23;9.9;;;2.3;;
79346;SDS011;68815;48.810;44.482;2023-04-19T00:49:26;8.3;;;2.3;;
79346;SDS011;68815;48.810;44.482;2023-04-19T00:52:28;7.6;;;2.6;;
79346;SDS011;68815;48.810;44.482;2023-04-19T00:55:29;10.1;;;2.8;;
79346;SDS011;68815;48.810;44.482;2023-04-19T00:58:31;8.7;;;2.8;;
79346;SDS011;68815;48.810;44.482;2023-04-19T01:01:32;8.9;;;2.8;;
79346;SDS011;68815;48.810;44.482;2023-04-19T01:04:34;7.1;;;2.8;;
79346;SDS011;68815;48.810;44.482;2023-04-19T01:07:35;10.4;;;3.3;;
79346;SDS011;68815;48.810;44.482;2023-04-19T01:10:37;12.5;;;3.7;;
79346;SDS011;68815;48.810;44.482;2023-04-19T01:13:38;10.5;;;3.6;;
79346;SDS011;68815;48.810;44.482;2023-04-19T01:16:40;12.1;;;4.2;;
79346;SDS011;68815;48.810;44.482;2023-04-19T01:19:42;14.6;;;4.5;;
79346;SDS011;68815;48.810;44.482;2023-04-19T01:22:44;12.9;;;5;;
79346;SDS011;68815;48.810;44.482;2023-04-19T01:25:45;18.1;;;5.2;;
79346;SDS011;68815;48.810;44.482;2023-04-19T01:28:46;17.7;;;5.6;;
79346;SDS011;68815;48.810;44.482;2023-04-19T01:31:48;16.1;;;4.9;;
79346;SDS011;68815;48.810;44.482;2023-04-19T01:34:49;12.4;;;4.9;;
79346;SDS011;68815;48.810;44.482;2023-04-19T01:37:51;11.8;;;4.6;;
79346;SDS011;68815;48.810;44.482;2023-04-19T01:40:52;14.9;;;4.4;;
79346;SDS011;68815;48.810;44.482;2023-04-19T01:43:54;15.6;;;4.6;;
79346;SDS011;68815;48.810;44.482;2023-04-19T01:46:55;11.3;;;4.3;;
79346;SDS011;68815;48.810;44.482;2023-04-19T01:49:57;14;;;4.5;;
79346;SDS011;68815;48.810;44.482;2023-04-19T01:52:58;12;;;4.4;;
79346;SDS011;68815;48.810;44.482;2023-04-19T01:56:00;14.3;;;4.5;;
79346;SDS011;68815;48.810;44.482;2023-04-19T01:59:01;13.5;;;4.3;;
79346;SDS011;68815;48.810;44.482;2023-04-19T02:02:05;13.1;;;4.4;;
79346;SDS011;68815;48.810;44.482;2023-04-19T02:05:07;12.4;;;4.7;;
79346;SDS011;68815;48.810;44.482;2023-04-19T02:08:08;16.9;;;4.5;;
79346;SDS011;68815;48.810;44.482;2023-04-19T02:11:11;15.9;;;5;;
79346;SDS011;68815;48.810;44.482;2023-04-19T02:14:14;13.2;;;5.1;;
79346;SDS011;68815;48.810;44.482;2023-04-19T02:17:16;13.1;;;5.5;;
79346;SDS011;68815;48.810;44.482;2023-04-19T02:20:17;14.5;;;5.6;;
79346;SDS011;68815;48.810;44.482;2023-04-19T02:23:18;18.4;;;5.6;;
79346;SDS011;68815;48.810;44.482;2023-04-19T02:26:20;18;;;5.6;;
79346;SDS011;68815;48.810;44.482;2023-04-19T02:29:21;17.2;;;5.6;;
79346;SDS011;68815;48.810;44.482;2023-04-19T02:32:23;15.7;;;5.1;;
79346;SDS011;68815;48.810;44.482;2023-04-19T02:35:24;15.1;;;5;;
79346;SDS011;68815;48.810;44.482;2023-04-19T02:38:25;17.2;;;5.1;;
79346;SDS011;68815;48.810;44.482;2023-04-19T02:41:27;14.1;;;4.9;;
79346;SDS011;68815;48.810;44.482;2023-04-19T02:44:29;12.7;;;4.5;;
79346;SDS011;68815;48.810;44.482;2023-04-19T02:47:30;12.1;;;4.1;;
79346;SDS011;68815;48.810;44.482;2023-04-19T02:50:32;12.3;;;4.1;;
79346;SDS011;68815;48.810;44.482;2023-04-19T02:53:33;12.2;;;3.6;;
79346;SDS011;68815;48.810;44.482;2023-04-19T02:56:34;12.3;;;3.8;;
79346;SDS011;68815;48.810;44.482;2023-04-19T02:59:36;15.6;;;3.4;;
79346;SDS011;68815;48.810;44.482;2023-04-19T03:02:37;14.6;;;3.2;;
79346;SDS011;68815;48.810;44.482;2023-04-19T03:05:38;15.1;;;3.4;;
79346;SDS011;68815;48.810;44.482;2023-04-19T03:08:40;13.3;;;3.1;;
79346;SDS011;68815;48.810;44.482;2023-04-19T03:11:41;14.9;;;3.7;;
79346;SDS011;68815;48.810;44.482;2023-04-19T03:14:43;11.7;;;2.6;;
79346;SDS011;68815;48.810;44.482;2023-04-19T03:17:45;10.5;;;3.1;;
79346;SDS011;68815;48.810;44.482;2023-04-19T03:20:46;9.6;;;2.7;;
79346;SDS011;68815;48.810;44.482;2023-04-19T03:23:48;10;;;2.4;;
79346;SDS011;68815;48.810;44.482;2023-04-19T03:26:49;14.2;;;2.5;;
79346;SDS011;68815;48.810;44.482;2023-04-19T03:29:50;9.8;;;2.2;;
79346;SDS011;68815;48.810;44.482;2023-04-19T03:32:52;11;;;2.7;;
79346;SDS011;68815;48.810;44.482;2023-04-19T03:35:53;9.5;;;2.3;;
79346;SDS011;68815;48.810;44.482;2023-04-19T03:38:54;23.7;;;3.4;;
79346;SDS011;68815;48.810;44.482;2023-04-19T03:41:56;11.4;;;2.3;;
79346;SDS011;68815;48.810;44.482;2023-04-19T03:44:58;12.1;;;2.3;;
79346;SDS011;68815;48.810;44.482;2023-04-19T03:47:59;12.7;;;2.4;;
79346;SDS011;68815;48.810;44.482;2023-04-19T03:51:00;13.6;;;2.8;;
79346;SDS011;68815;48.810;44.482;2023-04-19T03:54:02;14.9;;;2.7;;
79346;SDS011;68815;48.810;44.482;2023-04-19T03:57:04;13.9;;;3.1;;
79346;SDS011;68815;48.810;44.482;2023-04-19T04:00:05;12.5;;;2.4;;
79346;SDS011;68815;48.810;44.482;2023-04-19T04:03:07;13.4;;;2.6;;
79346;SDS011;68815;48.810;44.482;2023-04-19T04:06:08;13.5;;;2.5;;
79346;SDS011;68815;48.810;44.482;2023-04-19T04:09:10;14.4;;;2.9;;
79346;SDS011;68815;48.810;44.482;2023-04-19T04:12:11;12.5;;;2.5;;
79346;SDS011;68815;48.810;44.482;2023-04-19T04:15:13;18.9;;;2.8;;
79346;SDS011;68815;48.810;44.482;2023-04-19T04:18:14;11.8;;;2.2;;
79346;SDS011;68815;48.810;44.482;2023-04-19T04:21:16;11.8;;;3.1;;
79346;SDS011;68815;48.810;44.482;2023-04-19T04:24:18;15.6;;;2.5;;
79346;SDS011;68815;48.810;44.482;2023-04-19T04:27:19;9.5;;;2;;
79346;SDS011;68815;48.810;44.482;2023-04-19T04:30:20;12.8;;;2.6;;
79346;SDS011;68815;48.810;44.482;2023-04-19T04:33:23;12.7;;;2.8;;
79346;SDS011;68815;48.810;44.482;2023-04-19T04:36:24;12.9;;;2.2;;
79346;SDS011;68815;48.810;44.482;2023-04-19T04:39:25;16.7;;;2.8;;
79346;SDS011;68815;48.810;44.482;2023-04-19T04:42:27;15.2;;;2.9;;
79346;SDS011;68815;48.810;44.482;2023-04-19T04:45:28;17.8;;;3;;
79346;SDS011;68815;48.810;44.482;2023-04-19T04:48:30;18.4;;;3.6;;
79346;SDS011;68815;48.810;44.482;2023-04-19T04:51:32;19.2;;;3.3;;
79346;SDS011;68815;48.810;44.482;2023-04-19T04:54:34;12.2;;;2.5;;
79346;SDS011;68815;48.810;44.482;2023-04-19T04:57:35;17.3;;;2.9;;
79346;SDS011;68815;48.810;44.482;2023-04-19T05:00:36;14.3;;;3.5;;
79346;SDS011;68815;48.810;44.482;2023-04-19T05:03:38;14.3;;;2.9;;
79346;SDS011;68815;48.810;44.482;2023-04-19T05:06:39;14.2;;;3;;
79346;SDS011;68815;48.810;44.482;2023-04-19T05:09:40;16.9;;;3.5;;
79346;SDS011;68815;48.810;44.482;2023-04-19T05:12:42;17.1;;;3.2;;
79346;SDS011;68815;48.810;44.482;2023-04-19T05:15:43;16.4;;;2.9;;
79346;SDS011;68815;48.810;44.482;2023-04-19T05:18:45;13.8;;;2.8;;
79346;SDS011;68815;48.810;44.482;2023-04-19T05:21:47;20.8;;;3.5;;
79346;SDS011;68815;48.810;44.482;2023-04-19T05:24:49;14.5;;;3.1;;
79346;SDS011;68815;48.810;44.482;2023-04-19T05:27:50;16.3;;;3.3;;
79346;SDS011;68815;48.810;44.482;2023-04-19T05:30:52;16.3;;;3.2;;
79346;SDS011;68815;48.810;44.482;2023-04-19T05:33:54;11.7;;;2.9;;
79346;SDS011;68815;48.810;44.482;2023-04-19T05:36:55;16.2;;;3.2;;
79346;SDS011;68815;48.810;44.482;2023-04-19T05:39:56;14.5;;;3.4;;
79346;SDS011;68815;48.810;44.482;2023-04-19T05:42:58;15.2;;;3;;
79346;SDS011;68815;48.810;44.482;2023-04-19T05:45:59;15.3;;;2.9;;
79346;SDS011;68815;48.810;44.482;2023-04-19T05:49:01;18.3;;;2.9;;
79346;SDS011;68815;48.810;44.482;2023-04-19T05:52:03;18.6;;;2.8;;
79346;SDS011;68815;48.810;44.482;2023-04-19T05:55:05;18.5;;;2.9;;
79346;SDS011;68815;48.810;44.482;2023-04-19T05:58:06;14.2;;;2.9;;
79346;SDS011;68815;48.810;44.482;2023-04-19T06:01:07;12.8;;;3.1;;
79346;SDS011;68815;48.810;44.482;2023-04-19T06:04:09;16.2;;;3;;
79346;SDS011;68815;48.810;44.482;2023-04-19T06:07:10;13.2;;;3.5;;
79346;SDS011;68815;48.810;44.482;2023-04-19T06:10:12;16.6;;;3.7;;
79346;SDS011;68815;48.810;44.482;2023-04-19T06:13:14;17.8;;;3.7;;
79346;SDS011;68815;48.810;44.482;2023-04-19T06:16:16;18.1;;;5.3;;
79346;SDS011;68815;48.810;44.482;2023-04-19T06:19:17;16.9;;;3.4;;
79346;SDS011;68815;48.810;44.482;2023-04-19T06:22:19;16.6;;;3;;
79346;SDS011;68815;48.810;44.482;2023-04-19T06:25:21;20;;;3.6;;
79346;SDS011;68815;48.810;44.482;2023-04-19T06:28:22;18.8;;;3.5;;
79346;SDS011;68815;48.810;44.482;2023-04-19T06:31:24;15.6;;;3.3;;
79346;SDS011;68815;48.810;44.482;2023-04-19T06:34:26;19.9;;;3.4;;
79346;SDS011;68815;48.810;44.482;2023-04-19T06:37:27;18;;;3.9;;
79346;SDS011;68815;48.810;44.482;2023-04-19T06:40:29;19.2;;;4.2;;
79346;SDS011;68815;48.810;44.482;2023-04-19T06:43:31;25.4;;;7;;
79346;SDS011;68815;48.810;44.482;2023-04-19T06:46:33;21.5;;;5.7;;
79346;SDS011;68815;48.810;44.482;2023-04-19T06:49:36;17;;;3.7;;
79346;SDS011;68815;48.810;44.482;2023-04-19T06:52:37;21.4;;;4.6;;
79346;SDS011;68815;48.810;44.482;2023-04-19T06:55:39;18.9;;;4.5;;
79346;SDS011;68815;48.810;44.482;2023-04-19T06:58:40;29;;;6.7;;
79346;SDS011;68815;48.810;44.482;2023-04-19T07:01:42;23.3;;;5.9;;
79346;SDS011;68815;48.810;44.482;2023-04-19T07:04:43;19.8;;;4.4;;
79346;SDS011;68815;48.810;44.482;2023-04-19T07:07:44;20.5;;;4.3;;
79346;SDS011;68815;48.810;44.482;2023-04-19T07:10:46;19.2;;;5.7;;
79346;SDS011;68815;48.810;44.482;2023-04-19T07:13:48;16.2;;;4;;
79346;SDS011;68815;48.810;44.482;2023-04-19T07:16:49;17;;;5.2;;
79346;SDS011;68815;48.810;44.482;2023-04-19T07:19:51;23.2;;;3.8;;
79346;SDS011;68815;48.810;44.482;2023-04-19T07:22:52;16.1;;;3.4;;
79346;SDS011;68815;48.810;44.482;2023-04-19T07:25:54;16.8;;;3.5;;
79346;SDS011;68815;48.810;44.482;2023-04-19T07:28:56;16.2;;;3.6;;
79346;SDS011;68815;48.810;44.482;2023-04-19T07:31:57;19.2;;;4.1;;
79346;SDS011;68815;48.810;44.482;2023-04-19T07:34:59;17;;;3.1;;
79346;SDS011;68815;48.810;44.482;2023-04-19T07:38:00;20.4;;;3.3;;
79346;SDS011;68815;48.810;44.482;2023-04-19T07:41:02;17.2;;;2.5;;
79346;SDS011;68815;48.810;44.482;2023-04-19T07:44:03;21.3;;;3.1;;
79346;SDS011;68815;48.810;44.482;2023-04-19T07:47:05;26.3;;;4.1;;
79346;SDS011;68815;48.810;44.482;2023-04-19T07:50:07;26.7;;;3.1;;
79346;SDS011;68815;48.810;44.482;2023-04-19T07:53:08;22.1;;;3.3;;
79346;SDS011;68815;48.810;44.482;2023-04-19T07:56:10;19.7;;;3.1;;
79346;SDS011;68815;48.810;44.482;2023-04-19T07:59:11;19.6;;;3;;
79346;SDS011;68815;48.810;44.482;2023-04-19T08:02:13;21.5;;;3.6;;
79346;SDS011;68815;48.810;44.482;2023-04-19T08:05:14;21.1;;;3.7;;
79346;SDS011;68815;48.810;44.482;2023-04-19T08:08:16;17.9;;;3.7;;
79346;SDS011;68815;48.810;44.482;2023-04-19T08:11:17;21.8;;;2.9;;
79346;SDS011;68815;48.810;44.482;2023-04-19T08:14:19;16.9;;;3;;
79346;SDS011;68815;48.810;44.482;2023-04-19T08:17:20;22.6;;;4.3;;
79346;SDS011;68815;48.810;44.482;2023-04-19T08:20:21;23.5;;;2.8;;
79346;SDS011;68815;48.810;44.482;2023-04-19T08:23:22;20.7;;;3.2;;
79346;SDS011;68815;48.810;44.482;2023-04-19T08:26:24;20.7;;;3;;
79346;SDS011;68815;48.810;44.482;2023-04-19T08:29:26;23.3;;;2.9;;
79346;SDS011;68815;48.810;44.482;2023-04-19T08:32:27;20.7;;;3.8;;
79346;SDS011;68815;48.810;44.482;2023-04-19T08:35:28;17.9;;;3;;
79346;SDS011;68815;48.810;44.482;2023-04-19T08:38:30;22.2;;;3.7;;
79346;SDS011;68815;48.810;44.482;2023-04-19T08:41:31;21.2;;;3.5;;
79346;SDS011;68815;48.810;44.482;2023-04-19T08:44:34;25.5;;;4;;
79346;SDS011;68815;48.810;44.482;2023-04-19T08:47:36;26.5;;;4.1;;
79346;SDS011;68815;48.810;44.482;2023-04-19T08:50:43;25.6;;;3.7;;
79346;SDS011;68815;48.810;44.482;2023-04-19T08:53:45;35.7;;;5.2;;
79346;SDS011;68815;48.810;44.482;2023-04-19T08:56:48;26.6;;;4.4;;
79346;SDS011;68815;48.810;44.482;2023-04-19T08:59:50;35;;;5.2;;
79346;SDS011;68815;48.810;44.482;2023-04-19T09:02:51;26.5;;;3.8;;
79346;SDS011;68815;48.810;44.482;2023-04-19T09:05:53;29.6;;;5.2;;
79346;SDS011;68815;48.810;44.482;2023-04-19T09:08:56;32.5;;;3.8;;
79346;SDS011;68815;48.810;44.482;2023-04-19T09:12:17;30.7;;;4.2;;
79346;SDS011;68815;48.810;44.482;2023-04-19T09:15:18;31.8;;;4.7;;
79346;SDS011;68815;48.810;44.482;2023-04-19T09:21:54;27.7;;;4.3;;
79346;SDS011;68815;48.810;44.482;2023-04-19T09:24:56;25;;;4;;
79346;SDS011;68815;48.810;44.482;2023-04-19T09:28:07;29.3;;;4.6;;
79346;SDS011;68815;48.810;44.482;2023-04-19T09:31:10;35.1;;;4;;
79346;SDS011;68815;48.810;44.482;2023-04-19T09:34:12;32.2;;;4;;
79346;SDS011;68815;48.810;44.482;2023-04-19T09:37:14;32.4;;;5;;
79346;SDS011;68815;48.810;44.482;2023-04-19T09:40:20;29.7;;;3.9;;
79346;SDS011;68815;48.810;44.482;2023-04-19T09:43:22;29.5;;;3.9;;
79346;SDS011;68815;48.810;44.482;2023-04-19T09:46:32;31.9;;;4;;
79346;SDS011;68815;48.810;44.482;2023-04-19T09:49:34;37.8;;;4.5;;
79346;SDS011;68815;48.810;44.482;2023-04-19T09:52:36;35.3;;;3.9;;
79346;SDS011;68815;48.810;44.482;2023-04-19T09:55:38;27.3;;;3.6;;
79346;SDS011;68815;48.810;44.482;2023-04-19T09:58:41;33.8;;;4;;
79346;SDS011;68815;48.810;44.482;2023-04-19T10:01:43;34.2;;;4.8;;
79346;SDS011;68815;48.810;44.482;2023-04-19T10:04:46;31;;;4.1;;
79346;SDS011;68815;48.810;44.482;2023-04-19T10:07:48;27.4;;;4;;
79346;SDS011;68815;48.810;44.482;2023-04-19T10:10:50;44.6;;;4.5;;
79346;SDS011;68815;48.810;44.482;2023-04-19T10:13:52;26.3;;;3.5;;
79346;SDS011;68815;48.810;44.482;2023-04-19T10:16:57;40.3;;;4.4;;
79346;SDS011;68815;48.810;44.482;2023-04-19T10:20:00;33.2;;;3.4;;
79346;SDS011;68815;48.810;44.482;2023-04-19T10:23:06;31.1;;;4.3;;
79346;SDS011;68815;48.810;44.482;2023-04-19T10:26:08;31.6;;;3.9;;
79346;SDS011;68815;48.810;44.482;2023-04-19T10:29:10;31;;;4.2;;
79346;SDS011;68815;48.810;44.482;2023-04-19T10:32:12;32.9;;;5.2;;
79346;SDS011;68815;48.810;44.482;2023-04-19T10:35:16;27.7;;;4.1;;
79346;SDS011;68815;48.810;44.482;2023-04-19T10:38:19;31.8;;;4.2;;
79346;SDS011;68815;48.810;44.482;2023-04-19T10:41:20;29.8;;;4.3;;
79346;SDS011;68815;48.810;44.482;2023-04-19T10:44:22;26.4;;;3.6;;
79346;SDS011;68815;48.810;44.482;2023-04-19T10:53:59;37.7;;;4.7;;
79346;SDS011;68815;48.810;44.482;2023-04-19T10:57:02;28.2;;;4.2;;
79346;SDS011;68815;48.810;44.482;2023-04-19T11:06:56;27.2;;;3.4;;
79346;SDS011;68815;48.810;44.482;2023-04-19T11:09:59;26.7;;;4.4;;
79346;SDS011;68815;48.810;44.482;2023-04-19T11:13:00;22.7;;;3.2;;
79346;SDS011;68815;48.810;44.482;2023-04-19T11:16:06;27.7;;;3.7;;
79346;SDS011;68815;48.810;44.482;2023-04-19T11:19:08;23.9;;;3.4;;
79346;SDS011;68815;48.810;44.482;2023-04-19T11:22:09;24.7;;;2.8;;
79346;SDS011;68815;48.810;44.482;2023-04-19T11:25:11;24.1;;;3.7;;
79346;SDS011;68815;48.810;44.482;2023-04-19T11:28:14;25.5;;;3.2;;
79346;SDS011;68815;48.810;44.482;2023-04-19T11:31:16;20;;;2.7;;
79346;SDS011;68815;48.810;44.482;2023-04-19T11:34:21;24;;;3.6;;
79346;SDS011;68815;48.810;44.482;2023-04-19T11:37:23;26.2;;;3.3;;
79346;SDS011;68815;48.810;44.482;2023-04-19T11:40:24;26.9;;;4.2;;
79346;SDS011;68815;48.810;44.482;2023-04-19T11:43:31;31.9;;;3.7;;
79346;SDS011;68815;48.810;44.482;2023-04-19T11:46:33;20.8;;;3.3;;
79346;SDS011;68815;48.810;44.482;2023-04-19T11:49:34;26.8;;;3.8;;
79346;SDS011;68815;48.810;44.482;2023-04-19T11:52:35;23.7;;;3.4;;
79346;SDS011;68815;48.810;44.482;2023-04-19T11:55:37;19.7;;;2.9;;
79346;SDS011;68815;48.810;44.482;2023-04-19T11:58:40;20.4;;;3.2;;
79346;SDS011;68815;48.810;44.482;2023-04-19T12:01:42;21.6;;;2.7;;
79346;SDS011;68815;48.810;44.482;2023-04-19T12:04:44;24.9;;;2.9;;
79346;SDS011;68815;48.810;44.482;2023-04-19T12:11:03;22.5;;;2.9;;
79346;SDS011;68815;48.810;44.482;2023-04-19T12:14:07;20.3;;;2.9;;
79346;SDS011;68815;48.810;44.482;2023-04-19T12:17:09;26.5;;;3.7;;
79346;SDS011;68815;48.810;44.482;2023-04-19T12:20:11;20.8;;;2.8;;
79346;SDS011;68815;48.810;44.482;2023-04-19T12:23:12;28.6;;;3.3;;
79346;SDS011;68815;48.810;44.482;2023-04-19T12:26:14;21.1;;;2.7;;
79346;SDS011;68815;48.810;44.482;2023-04-19T12:29:15;20.3;;;2.8;;
79346;SDS011;68815;48.810;44.482;2023-04-19T12:32:16;22.1;;;2.7;;
79346;SDS011;68815;48.810;44.482;2023-04-19T12:35:18;17.5;;;3;;
79346;SDS011;68815;48.810;44.482;2023-04-19T12:38:19;23.9;;;3;;
79346;SDS011;68815;48.810;44.482;2023-04-19T12:41:20;18.2;;;2.4;;
79346;SDS011;68815;48.810;44.482;2023-04-19T12:44:22;21.6;;;3.1;;
79346;SDS011;68815;48.810;44.482;2023-04-19T12:47:23;17;;;3.4;;
79346;SDS011;68815;48.810;44.482;2023-04-19T12:50:25;22.4;;;3.5;;
79346;SDS011;68815;48.810;44.482;2023-04-19T12:53:27;18.1;;;3.1;;
79346;SDS011;68815;48.810;44.482;2023-04-19T12:56:33;22.9;;;3;;
79346;SDS011;68815;48.810;44.482;2023-04-19T12:59:35;18.6;;;2.9;;
79346;SDS011;68815;48.810;44.482;2023-04-19T13:02:37;22.2;;;3.1;;
79346;SDS011;68815;48.810;44.482;2023-04-19T13:05:39;18.8;;;3.3;;
79346;SDS011;68815;48.810;44.482;2023-04-19T13:08:40;22.7;;;3.1;;
79346;SDS011;68815;48.810;44.482;2023-04-19T13:11:41;25.3;;;3.1;;
79346;SDS011;68815;48.810;44.482;2023-04-19T13:14:43;19.7;;;3.2;;
79346;SDS011;68815;48.810;44.482;2023-04-19T13:17:45;17.8;;;2.6;;
79346;SDS011;68815;48.810;44.482;2023-04-19T13:20:46;19.5;;;2.7;;
79346;SDS011;68815;48.810;44.482;2023-04-19T13:23:48;18.2;;;3;;
79346;SDS011;68815;48.810;44.482;2023-04-19T13:26:49;16.4;;;2.5;;
79346;SDS011;68815;48.810;44.482;2023-04-19T13:29:50;19.9;;;3;;
79346;SDS011;68815;48.810;44.482;2023-04-19T13:32:54;19.8;;;2.7;;
79346;SDS011;68815;48.810;44.482;2023-04-19T13:35:55;24.3;;;3.1;;
79346;SDS011;68815;48.810;44.482;2023-04-19T13:38:57;19.3;;;3;;
79346;SDS011;68815;48.810;44.482;2023-04-19T13:41:58;21.5;;;3.5;;
79346;SDS011;68815;48.810;44.482;2023-04-19T13:45:00;24.1;;;3.1;;
79346;SDS011;68815;48.810;44.482;2023-04-19T13:48:02;14.8;;;2.4;;
79346;SDS011;68815;48.810;44.482;2023-04-19T13:51:03;23.3;;;3.3;;
79346;SDS011;68815;48.810;44.482;2023-04-19T13:54:06;24.8;;;3.2;;
79346;SDS011;68815;48.810;44.482;2023-04-19T13:57:07;23.1;;;3;;
79346;SDS011;68815;48.810;44.482;2023-04-19T14:00:09;24.4;;;3.1;;
79346;SDS011;68815;48.810;44.482;2023-04-19T14:03:12;20;;;2.5;;
79346;SDS011;68815;48.810;44.482;2023-04-19T14:06:13;19.1;;;3;;
79346;SDS011;68815;48.810;44.482;2023-04-19T14:09:15;20.9;;;2.9;;
79346;SDS011;68815;48.810;44.482;2023-04-19T14:12:16;21.5;;;3.3;;
79346;SDS011;68815;48.810;44.482;2023-04-19T14:15:18;22.3;;;3.5;;
79346;SDS011;68815;48.810;44.482;2023-04-19T14:18:24;22.7;;;3.4;;
79346;SDS011;68815;48.810;44.482;2023-04-19T14:21:26;17.7;;;3;;
79346;SDS011;68815;48.810;44.482;2023-04-19T14:24:27;15.8;;;2.7;;
79346;SDS011;68815;48.810;44.482;2023-04-19T14:27:29;18.2;;;3.1;;
79346;SDS011;68815;48.810;44.482;2023-04-19T14:30:30;20.4;;;2.8;;
79346;SDS011;68815;48.810;44.482;2023-04-19T14:33:32;26.1;;;3.2;;
79346;SDS011;68815;48.810;44.482;2023-04-19T14:36:34;22.2;;;3.1;;
79346;SDS011;68815;48.810;44.482;2023-04-19T14:39:35;21.9;;;3.3;;
79346;SDS011;68815;48.810;44.482;2023-04-19T14:42:36;22.7;;;3;;
79346;SDS011;68815;48.810;44.482;2023-04-19T14:45:38;17.5;;;3.1;;
79346;SDS011;68815;48.810;44.482;2023-04-19T14:48:39;19.7;;;3.5;;
79346;SDS011;68815;48.810;44.482;2023-04-19T14:51:41;19.4;;;3.4;;
79346;SDS011;68815;48.810;44.482;2023-04-19T14:54:43;19.4;;;3.6;;
79346;SDS011;68815;48.810;44.482;2023-04-19T14:57:45;17.6;;;2.8;;
79346;SDS011;68815;48.810;44.482;2023-04-19T15:00:46;20;;;3.1;;
79346;SDS011;68815;48.810;44.482;2023-04-19T15:03:48;16.8;;;2.9;;
79346;SDS011;68815;48.810;44.482;2023-04-19T15:06:49;16.4;;;2.6;;
79346;SDS011;68815;48.810;44.482;2023-04-19T15:09:51;19.1;;;2.9;;
79346;SDS011;68815;48.810;44.482;2023-04-19T15:12:52;19.1;;;3;;
79346;SDS011;68815;48.810;44.482;2023-04-19T15:15:55;16.6;;;3.2;;
79346;SDS011;68815;48.810;44.482;2023-04-19T15:18:56;20.7;;;3.2;;
79346;SDS011;68815;48.810;44.482;2023-04-19T15:21:58;17.4;;;2.9;;
79346;SDS011;68815;48.810;44.482;2023-04-19T15:24:59;16.1;;;2.5;;
79346;SDS011;68815;48.810;44.482;2023-04-19T15:28:01;21.2;;;4.2;;
79346;SDS011;68815;48.810;44.482;2023-04-19T15:31:03;16.2;;;3.1;;
79346;SDS011;68815;48.810;44.482;2023-04-19T15:34:05;20.8;;;3;;
79346;SDS011;68815;48.810;44.482;2023-04-19T15:37:07;20;;;3.2;;
79346;SDS011;68815;48.810;44.482;2023-04-19T15:40:09;17.3;;;3.2;;
79346;SDS011;68815;48.810;44.482;2023-04-19T15:43:10;22.8;;;3.9;;
79346;SDS011;68815;48.810;44.482;2023-04-19T15:46:12;19.4;;;4.7;;
79346;SDS011;68815;48.810;44.482;2023-04-19T15:49:13;21.9;;;4.3;;
79346;SDS011;68815;48.810;44.482;2023-04-19T15:52:15;19.3;;;4.6;;
79346;SDS011;68815;48.810;44.482;2023-04-19T15:55:16;21.2;;;4.7;;
79346;SDS011;68815;48.810;44.482;2023-04-19T15:58:18;16.2;;;3.8;;
79346;SDS011;68815;48.810;44.482;2023-04-19T16:01:19;16.6;;;3.9;;
79346;SDS011;68815;48.810;44.482;2023-04-19T16:04:21;19.8;;;3.6;;
79346;SDS011;68815;48.810;44.482;2023-04-19T16:07:22;20.4;;;3.7;;
79346;SDS011;68815;48.810;44.482;2023-04-19T16:10:24;14.2;;;3.5;;
79346;SDS011;68815;48.810;44.482;2023-04-19T16:13:25;16.8;;;3.6;;
79346;SDS011;68815;48.810;44.482;2023-04-19T16:16:26;18.8;;;4;;
79346;SDS011;68815;48.810;44.482;2023-04-19T16:19:28;21.9;;;4.1;;
79346;SDS011;68815;48.810;44.482;2023-04-19T16:22:30;18.3;;;3.9;;
79346;SDS011;68815;48.810;44.482;2023-04-19T16:25:32;17.7;;;3.8;;
79346;SDS011;68815;48.810;44.482;2023-04-19T16:28:34;16.9;;;3.9;;
79346;SDS011;68815;48.810;44.482;2023-04-19T16:31:36;18.2;;;3.9;;
79346;SDS011;68815;48.810;44.482;2023-04-19T16:34:37;16.3;;;3.8;;
79346;SDS011;68815;48.810;44.482;2023-04-19T16:37:39;16.8;;;3.9;;
79346;SDS011;68815;48.810;44.482;2023-04-19T16:40:40;18.9;;;3.9;;
79346;SDS011;68815;48.810;44.482;2023-04-19T16:43:42;19.9;;;3.9;;
79346;SDS011;68815;48.810;44.482;2023-04-19T16:46:43;15.1;;;3.4;;
79346;SDS011;68815;48.810;44.482;2023-04-19T16:49:45;14.2;;;3.3;;
79346;SDS011;68815;48.810;44.482;2023-04-19T16:52:46;16.4;;;3.3;;
79346;SDS011;68815;48.810;44.482;2023-04-19T16:55:47;16.9;;;4.1;;
79346;SDS011;68815;48.810;44.482;2023-04-19T16:58:49;15.8;;;3.2;;
79346;SDS011;68815;48.810;44.482;2023-04-19T17:01:50;15.1;;;2.9;;
79346;SDS011;68815;48.810;44.482;2023-04-19T17:04:52;16.5;;;3.4;;
79346;SDS011;68815;48.810;44.482;2023-04-19T17:07:53;19.2;;;3.8;;
79346;SDS011;68815;48.810;44.482;2023-04-19T17:10:55;15;;;3.5;;
79346;SDS011;68815;48.810;44.482;2023-04-19T17:13:57;16;;;3.2;;
79346;SDS011;68815;48.810;44.482;2023-04-19T17:16:59;15.9;;;3.1;;
79346;SDS011;68815;48.810;44.482;2023-04-19T17:20:01;15.5;;;2.9;;
79346;SDS011;68815;48.810;44.482;2023-04-19T17:23:02;16;;;2.7;;
79346;SDS011;68815;48.810;44.482;2023-04-19T17:26:04;13.8;;;2.7;;
79346;SDS011;68815;48.810;44.482;2023-04-19T17:29:07;13.6;;;2.6;;
79346;SDS011;68815;48.810;44.482;2023-04-19T17:32:09;10.3;;;2.6;;
79346;SDS011;68815;48.810;44.482;2023-04-19T17:35:10;11.6;;;2.9;;
79346;SDS011;68815;48.810;44.482;2023-04-19T17:38:12;15.3;;;2.9;;
79346;SDS011;68815;48.810;44.482;2023-04-19T17:41:14;14.4;;;2.9;;
79346;SDS011;68815;48.810;44.482;2023-04-19T17:44:16;17.5;;;2.7;;
79346;SDS011;68815;48.810;44.482;2023-04-19T17:47:17;11.2;;;2.7;;
79346;SDS011;68815;48.810;44.482;2023-04-19T17:50:19;11.6;;;2.7;;
79346;SDS011;68815;48.810;44.482;2023-04-19T17:53:21;13.3;;;2.8;;
79346;SDS011;68815;48.810;44.482;2023-04-19T17:56:22;10.6;;;2.7;;
79346;SDS011;68815;48.810;44.482;2023-04-19T17:59:23;14.1;;;2.8;;
79346;SDS011;68815;48.810;44.482;2023-04-19T18:02:25;10.5;;;2.6;;
79346;SDS011;68815;48.810;44.482;2023-04-19T18:05:26;12.1;;;2.7;;
79346;SDS011;68815;48.810;44.482;2023-04-19T18:08:34;15.8;;;3;;
79346;SDS011;68815;48.810;44.482;2023-04-19T18:11:35;13.6;;;2.8;;
79346;SDS011;68815;48.810;44.482;2023-04-19T18:14:37;10.9;;;2.7;;
79346;SDS011;68815;48.810;44.482;2023-04-19T18:17:38;13.9;;;2.6;;
79346;SDS011;68815;48.810;44.482;2023-04-19T18:20:40;12.9;;;2.5;;
79346;SDS011;68815;48.810;44.482;2023-04-19T18:23:41;11.8;;;2.8;;
79346;SDS011;68815;48.810;44.482;2023-04-19T18:26:42;10.3;;;2.4;;
79346;SDS011;68815;48.810;44.482;2023-04-19T18:29:43;13.2;;;2.9;;
79346;SDS011;68815;48.810;44.482;2023-04-19T18:32:45;13.8;;;3;;
79346;SDS011;68815;48.810;44.482;2023-04-19T18:35:46;11.4;;;2.5;;
79346;SDS011;68815;48.810;44.482;2023-04-19T18:38:48;15;;;2.6;;
79346;SDS011;68815;48.810;44.482;2023-04-19T18:41:49;11.6;;;2.7;;